Time;durP1;ratioP1;P1;durP2;ratioP2;P2;SDS_P1;SDS_P2;PMS_P1;PMS_P2;Temp;Humidity;BMP_temperature;BMP_pressure;BME280_temperature;BME280_humidity;BME280_pressure;Samples;Min_cycle;Max_cycle;Signal;HPM_P1;HPM_P2
2024/03/24 00:00:31;;;;;;;6.80;6.30;;;6.90;29.70;;;;;;4899715;29;20185;-83
2024/03/24 00:02:57;;;;;;;6.53;6.20;;;6.90;30.50;;;;;;4913365;29;20220;-83
2024/03/24 00:05:22;;;;;;;6.80;6.53;;;6.90;30.40;;;;;;4907412;29;20437;-82
2024/03/24 00:07:48;;;;;;;7.63;7.33;;;6.90;31.50;;;;;;4901888;29;20193;-83
2024/03/24 00:10:13;;;;;;;6.63;6.23;;;7.00;31.70;;;;;;4895932;29;20226;-83
2024/03/24 00:12:39;;;;;;;6.70;6.40;;;7.00;32.20;;;;;;4892785;29;20220;-82
2024/03/24 00:15:08;;;;;;;6.20;5.90;;;6.90;31.80;;;;;;4900456;29;20285;-83
2024/03/24 00:17:33;;;;;;;6.10;5.90;;;6.70;32.50;;;;;;4889445;29;20196;-82
2024/03/24 00:19:59;;;;;;;6.63;6.33;;;6.70;32.40;;;;;;4910944;29;20456;-81
2024/03/24 00:22:24;;;;;;;7.33;6.90;;;6.60;33.40;;;;;;4912954;29;20229;-82
2024/03/24 00:24:50;;;;;;;6.60;6.30;;;6.50;34.20;;;;;;4904159;29;20194;-83
2024/03/24 00:27:16;;;;;;;6.53;6.13;;;6.50;33.70;;;;;;4895608;29;20217;-82
2024/03/24 00:29:41;;;;;;;6.33;6.10;;;6.50;33.70;;;;;;4911236;29;20181;-83
2024/03/24 00:32:07;;;;;;;5.83;5.63;;;6.60;34.00;;;;;;4905534;29;20200;-82
2024/03/24 00:34:33;;;;;;;5.90;5.70;;;6.40;33.00;;;;;;4894076;29;20212;-82
2024/03/24 00:36:58;;;;;;;6.03;5.83;;;6.40;34.10;;;;;;4898309;29;20245;-82
2024/03/24 00:39:24;;;;;;;6.00;5.70;;;6.30;34.30;;;;;;4899844;29;20181;-81
2024/03/24 00:41:51;;;;;;;6.13;5.93;;;6.40;35.10;;;;;;4895084;29;20325;-82
2024/03/24 00:44:16;;;;;;;6.97;6.67;;;6.40;35.40;;;;;;4894857;29;20460;-81
2024/03/24 00:46:42;;;;;;;6.77;6.30;;;6.30;35.10;;;;;;4895072;29;20182;-83
2024/03/24 00:49:07;;;;;;;6.03;5.83;;;6.40;35.40;;;;;;4903146;29;20213;-82
2024/03/24 00:51:33;;;;;;;5.80;5.60;;;6.30;33.40;;;;;;4893785;29;20625;-83
2024/03/24 00:54:01;;;;;;;6.00;5.77;;;6.20;35.10;;;;;;4893540;29;20217;-82
2024/03/24 00:56:27;;;;;;;5.90;5.70;;;6.20;35.70;;;;;;4893691;29;20180;-81
2024/03/24 00:58:52;;;;;;;6.20;5.90;;;6.30;35.60;;;;;;4908797;29;20425;-83
2024/03/24 01:01:21;;;;;;;6.57;6.27;;;6.20;33.70;;;;;;4905589;29;20204;-82
2024/03/24 01:03:46;;;;;;;6.30;6.10;;;6.20;34.90;;;;;;4902629;29;20189;-83
2024/03/24 01:06:12;;;;;;;6.63;6.40;;;6.20;35.00;;;;;;4896308;29;20434;-83
2024/03/24 01:08:38;;;;;;;6.90;6.60;;;6.20;34.20;;;;;;4903214;29;20197;-83
2024/03/24 01:11:04;;;;;;;6.60;6.40;;;6.20;35.00;;;;;;4902686;29;20209;-82
2024/03/24 01:13:30;;;;;;;6.27;6.07;;;6.20;35.00;;;;;;4902755;29;20461;-82
2024/03/24 01:15:56;;;;;;;6.77;6.47;;;6.20;34.70;;;;;;4894353;29;20425;-82
2024/03/24 01:18:21;;;;;;;7.50;7.00;;;6.30;35.00;;;;;;4891018;29;20178;-82
2024/03/24 01:20:47;;;;;;;6.67;6.27;;;6.40;34.70;;;;;;4903411;29;20189;-84
2024/03/24 01:23:13;;;;;;;6.40;6.10;;;6.30;34.50;;;;;;4897329;29;20244;-83
2024/03/24 01:25:38;;;;;;;6.50;6.20;;;6.30;35.20;;;;;;4901503;29;20177;-83
2024/03/24 01:28:04;;;;;;;6.17;5.90;;;6.30;34.40;;;;;;4886190;29;20429;-84
2024/03/24 01:30:30;;;;;;;6.50;6.30;;;6.40;34.60;;;;;;4901314;29;20192;-83
2024/03/24 01:32:55;;;;;;;6.30;6.10;;;6.30;34.90;;;;;;4899162;29;20245;-82
2024/03/24 01:35:23;;;;;;;6.73;6.53;;;6.20;35.60;;;;;;4904150;29;20659;-84
2024/03/24 01:37:48;;;;;;;6.37;6.17;;;6.40;36.00;;;;;;4902560;29;20220;-82
2024/03/24 01:40:14;;;;;;;5.60;5.50;;;6.50;36.30;;;;;;4889053;29;20421;-83
2024/03/24 01:42:40;;;;;;;6.37;5.97;;;6.50;35.10;;;;;;4906226;29;20200;-83
2024/03/24 01:45:06;;;;;;;6.07;5.87;;;6.50;34.50;;;;;;4917114;29;20649;-84
2024/03/24 01:47:34;;;;;;;5.73;5.43;;;6.70;35.10;;;;;;4889435;29;20280;-84
2024/03/24 01:50:00;;;;;;;5.80;5.60;;;6.80;33.70;;;;;;4905597;29;20457;-82
2024/03/24 01:52:26;;;;;;;5.70;5.50;;;6.70;33.70;;;;;;4874520;29;20506;-84
2024/03/24 01:54:52;;;;;;;6.30;6.00;;;6.80;33.10;;;;;;4902815;29;20424;-83
2024/03/24 01:57:18;;;;;;;5.80;5.60;;;6.80;33.00;;;;;;4901252;29;20486;-83
2024/03/24 01:59:43;;;;;;;6.03;5.83;;;6.90;33.50;;;;;;4906629;29;20417;-83
2024/03/24 02:02:09;;;;;;;6.00;5.80;;;6.90;33.90;;;;;;4907918;29;20442;-84
2024/03/24 02:04:47;;;;;;;5.87;5.67;;;7.00;34.20;;;;;;4896629;29;20196;-84
2024/03/24 02:07:16;;;;;;;6.50;6.30;;;6.90;33.80;;;;;;4921937;29;20189;-84
2024/03/24 02:09:42;;;;;;;5.43;5.33;;;6.90;34.90;;;;;;4917501;29;20455;-84
2024/03/24 02:12:08;;;;;;;6.33;6.03;;;7.10;33.50;;;;;;4904047;29;20488;-83
2024/03/24 02:14:34;;;;;;;6.50;6.17;;;7.30;33.30;;;;;;4896782;29;21016;-84
2024/03/24 02:17:00;;;;;;;7.13;6.83;;;7.60;31.90;;;;;;4897112;29;20590;-84
2024/03/24 02:19:26;;;;;;;5.90;5.70;;;7.70;30.50;;;;;;4902529;29;20413;-84
2024/03/24 02:21:52;;;;;;;5.97;5.80;;;7.70;30.50;;;;;;4888369;29;20998;-84
2024/03/24 02:24:18;;;;;;;6.30;6.10;;;7.70;29.70;;;;;;4893791;29;20200;-84
2024/03/24 02:26:48;;;;;;;6.23;6.03;;;7.70;28.70;;;;;;4901832;29;20428;-84
2024/03/24 02:29:13;;;;;;;6.10;5.90;;;7.50;29.70;;;;;;4926820;29;20436;-82
2024/03/24 02:31:42;;;;;;;5.87;5.67;;;7.60;29.50;;;;;;4913583;29;20449;-84
2024/03/24 02:34:07;;;;;;;6.67;6.37;;;7.20;29.30;;;;;;4929789;29;20216;-84
2024/03/24 02:36:33;;;;;;;6.43;6.23;;;7.10;30.10;;;;;;4913786;29;20785;-84
2024/03/24 02:38:58;;;;;;;6.20;6.00;;;7.00;30.00;;;;;;4906826;29;20193;-83
2024/03/24 02:41:24;;;;;;;5.93;5.73;;;6.90;30.00;;;;;;4886849;29;20209;-84
2024/03/24 02:43:50;;;;;;;6.07;5.87;;;7.00;30.40;;;;;;4896678;29;20192;-84
2024/03/24 02:46:15;;;;;;;5.83;5.63;;;7.20;30.10;;;;;;4903278;29;20196;-84
2024/03/24 02:48:41;;;;;;;6.33;6.13;;;7.30;29.30;;;;;;4904612;29;20670;-83
2024/03/24 02:51:06;;;;;;;5.80;5.60;;;7.30;29.30;;;;;;4899057;29;20185;-84
2024/03/24 02:53:32;;;;;;;6.00;5.80;;;7.30;29.40;;;;;;4902200;29;20205;-84
2024/03/24 02:55:57;;;;;;;6.40;6.17;;;7.50;29.50;;;;;;4892671;29;20245;-84
2024/03/24 02:58:23;;;;;;;6.40;6.20;;;7.60;28.40;;;;;;4894137;29;20259;-82
2024/03/24 03:00:48;;;;;;;6.27;6.07;;;7.60;28.50;;;;;;4900738;29;20185;-84
2024/03/24 03:03:14;;;;;;;6.63;6.43;;;7.70;28.30;;;;;;4890264;29;20205;-84
2024/03/24 03:05:40;;;;;;;6.23;6.03;;;7.60;27.90;;;;;;4893963;29;20638;-84
2024/03/24 03:08:09;;;;;;;6.50;6.20;;;7.50;27.90;;;;;;4892608;29;20493;-84
2024/03/24 03:10:35;;;;;;;6.30;6.10;;;7.50;28.10;;;;;;4892571;29;20441;-84
2024/03/24 03:13:01;;;;;;;6.20;5.90;;;7.50;27.50;;;;;;4892407;29;20469;-83
2024/03/24 03:15:26;;;;;;;6.03;5.83;;;7.30;28.10;;;;;;4897548;29;20192;-83
2024/03/24 03:17:52;;;;;;;6.33;6.13;;;7.20;28.60;;;;;;4891712;29;21138;-83
2024/03/24 03:20:18;;;;;;;6.27;5.97;;;7.10;29.00;;;;;;4883498;29;20192;-84
2024/03/24 03:22:45;;;;;;;5.93;5.63;;;7.00;29.00;;;;;;4872744;29;20454;-83
2024/03/24 03:25:11;;;;;;;6.30;6.10;;;7.00;28.50;;;;;;4872362;29;20193;-83
2024/03/24 03:27:41;;;;;;;7.50;7.20;;;6.80;29.50;;;;;;4874642;29;20880;-84
2024/03/24 03:30:07;;;;;;;6.07;5.87;;;6.70;29.90;;;;;;4889298;29;20440;-82
2024/03/24 03:32:33;;;;;;;5.60;5.40;;;6.80;29.90;;;;;;4898385;29;20464;-83
2024/03/24 03:34:59;;;;;;;5.70;5.50;;;6.70;29.90;;;;;;4890360;29;20436;-83
2024/03/24 03:37:26;;;;;;;6.40;6.10;;;6.80;30.00;;;;;;4892415;29;20418;-84
2024/03/24 03:39:52;;;;;;;5.50;5.30;;;6.90;30.00;;;;;;4893061;29;20865;-82
2024/03/24 03:42:21;;;;;;;5.93;5.73;;;7.00;30.00;;;;;;4885572;29;20449;-82
2024/03/24 03:44:49;;;;;;;6.00;5.80;;;6.90;30.00;;;;;;4877553;29;20800;-84
2024/03/24 03:47:16;;;;;;;6.90;6.50;;;7.00;30.00;;;;;;4886173;29;20429;-84
2024/03/24 03:49:42;;;;;;;5.53;5.40;;;7.00;30.10;;;;;;4875541;29;20426;-84
2024/03/24 03:52:09;;;;;;;5.87;5.67;;;7.00;30.50;;;;;;4875616;29;20539;-83
2024/03/24 03:54:36;;;;;;;6.10;5.80;;;6.80;29.90;;;;;;4886561;29;20457;-81
2024/03/24 03:57:03;;;;;;;5.40;5.20;;;6.70;29.90;;;;;;4899679;29;20494;-82
2024/03/24 03:59:29;;;;;;;5.97;5.80;;;6.70;30.80;;;;;;4893096;29;20996;-84
2024/03/24 04:01:55;;;;;;;5.87;5.67;;;6.60;30.90;;;;;;4891130;29;20480;-83
2024/03/24 04:04:21;;;;;;;6.10;5.90;;;6.60;31.20;;;;;;4903145;29;20200;-82
2024/03/24 04:06:50;;;;;;;6.10;5.90;;;6.70;31.40;;;;;;4890902;29;20917;-84
2024/03/24 04:09:16;;;;;;;6.00;5.80;;;6.60;31.50;;;;;;4894706;29;20433;-84
2024/03/24 04:11:43;;;;;;;6.30;6.10;;;6.40;31.80;;;;;;4890551;29;20468;-84
2024/03/24 04:14:08;;;;;;;5.67;5.47;;;6.40;31.10;;;;;;4901473;29;20465;-82
2024/03/24 04:16:34;;;;;;;5.80;5.60;;;6.40;32.00;;;;;;4898221;29;20450;-83
2024/03/24 04:19:01;;;;;;;5.93;5.63;;;6.50;32.00;;;;;;4897479;29;20185;-84
2024/03/24 04:21:27;;;;;;;6.27;6.07;;;6.50;32.10;;;;;;4922947;29;20525;-83
2024/03/24 04:23:53;;;;;;;6.77;6.23;;;6.50;31.40;;;;;;4892879;29;20905;-84
2024/03/24 04:26:21;;;;;;;5.80;5.60;;;6.60;31.40;;;;;;4904964;29;20188;-82
2024/03/24 04:28:47;;;;;;;5.50;5.30;;;6.60;30.60;;;;;;4893664;29;20798;-84
2024/03/24 04:31:13;;;;;;;6.50;6.20;;;6.70;30.40;;;;;;4906950;29;20421;-84
2024/03/24 04:33:39;;;;;;;6.17;5.90;;;6.70;30.90;;;;;;4905858;29;20457;-84
2024/03/24 04:36:07;;;;;;;6.20;5.87;;;6.70;30.70;;;;;;4898950;29;20477;-82
2024/03/24 04:38:33;;;;;;;6.10;5.90;;;6.90;30.90;;;;;;4898956;29;20426;-84
2024/03/24 04:40:59;;;;;;;6.13;5.83;;;7.00;30.30;;;;;;4906930;29;20442;-83
2024/03/24 04:43:28;;;;;;;5.97;5.70;;;7.10;30.10;;;;;;4899640;29;20437;-84
2024/03/24 04:45:53;;;;;;;5.70;5.50;;;7.20;30.20;;;;;;4905897;29;20189;-82
2024/03/24 04:48:19;;;;;;;6.20;6.00;;;7.00;30.00;;;;;;4905654;29;20429;-84
2024/03/24 04:50:45;;;;;;;5.53;5.43;;;7.00;30.00;;;;;;4898713;29;20477;-83
2024/03/24 04:53:11;;;;;;;6.47;6.17;;;7.10;30.10;;;;;;4898025;29;20472;-82
2024/03/24 04:55:39;;;;;;;5.73;5.60;;;7.20;30.10;;;;;;4897471;29;20884;-84
2024/03/24 04:58:08;;;;;;;5.40;5.20;;;7.30;29.60;;;;;;4897451;29;20551;-83
2024/03/24 05:00:35;;;;;;;5.63;5.53;;;7.00;29.60;;;;;;4898238;29;20452;-83
2024/03/24 05:03:02;;;;;;;5.80;5.60;;;7.10;29.10;;;;;;4907027;29;20521;-85
2024/03/24 05:05:28;;;;;;;5.33;5.23;;;7.10;29.00;;;;;;4905404;29;20445;-83
2024/03/24 05:07:55;;;;;;;6.07;5.60;;;7.00;28.80;;;;;;4896730;29;20441;-82
2024/03/24 05:10:21;;;;;;;6.47;6.27;;;7.00;29.60;;;;;;4893968;29;20437;-84
2024/03/24 05:12:55;;;;;;;5.50;5.40;;;6.90;29.00;;;;;;4939468;23;20493;-83
2024/03/24 05:16:19;;;;;;;5.73;5.50;;;6.90;29.70;;;;;;4899641;29;20197;-82
2024/03/24 05:19:58;;;;;;;6.03;5.83;;;6.90;28.80;;;;;;4898555;29;20453;-82
2024/03/24 05:23:32;;;;;;;5.60;5.43;;;6.80;29.00;;;;;;4888171;29;20545;-83
2024/03/24 05:26:35;;;;;;;5.40;5.30;;;6.80;29.10;;;;;;4882308;29;20442;-85
2024/03/24 05:29:40;;;;;;;5.67;5.47;;;6.80;29.20;;;;;;4859610;29;20489;-84
2024/03/24 05:32:50;;;;;;;6.13;5.87;;;6.60;29.10;;;;;;4863058;29;20888;-83
2024/03/24 05:36:10;;;;;;;6.07;5.87;;;6.60;29.10;;;;;;4879094;29;20451;-83
2024/03/24 05:39:07;;;;;;;6.03;5.83;;;6.70;29.30;;;;;;4881235;29;20465;-85
2024/03/24 05:45:17;;;;;;;6.03;5.77;;;6.60;28.70;;;;;;4882368;29;20438;-84
2024/03/24 05:48:28;;;;;;;5.60;5.40;;;6.80;29.00;;;;;;4878313;29;20478;-84
2024/03/24 05:52:02;;;;;;;5.67;5.47;;;7.00;28.70;;;;;;4882873;29;20435;-84
2024/03/24 05:55:16;;;;;;;5.80;5.60;;;7.20;28.20;;;;;;4881825;29;20488;-83
2024/03/24 05:58:20;;;;;;;6.23;6.03;;;7.00;28.30;;;;;;4882314;29;20431;-82
2024/03/24 06:01:31;;;;;;;6.10;5.90;;;7.00;27.60;;;;;;4874598;29;20422;-83
2024/03/24 06:04:14;;;;;;;5.67;5.50;;;6.70;28.40;;;;;;4865681;29;20984;-84
2024/03/24 06:06:55;;;;;;;6.37;6.10;;;6.70;28.10;;;;;;4880396;29;20538;-83
2024/03/24 06:09:28;;;;;;;5.37;5.27;;;6.70;28.30;;;;;;4878530;29;20529;-82
2024/03/24 06:12:44;;;;;;;6.47;6.27;;;6.60;28.30;;;;;;4864116;29;20542;-83
2024/03/24 06:15:36;;;;;;;6.13;5.93;;;6.50;28.60;;;;;;4868862;29;20485;-81
2024/03/24 06:18:09;;;;;;;5.80;5.50;;;6.70;28.70;;;;;;4893837;29;20882;-83
2024/03/24 06:20:38;;;;;;;5.17;5.03;;;6.70;28.30;;;;;;4894900;29;20446;-81
2024/03/24 06:23:04;;;;;;;5.77;5.50;;;6.80;27.90;;;;;;4889392;29;20546;-81
2024/03/24 06:25:30;;;;;;;5.33;5.13;;;6.90;28.40;;;;;;4889024;29;20442;-82
2024/03/24 06:27:56;;;;;;;5.97;5.67;;;7.00;28.30;;;;;;4891947;29;20439;-81
2024/03/24 06:30:22;;;;;;;5.13;4.93;;;6.90;27.60;;;;;;4891848;29;20539;-83
2024/03/24 06:32:48;;;;;;;5.50;5.30;;;6.80;27.30;;;;;;4904080;29;20482;-83
2024/03/24 06:35:14;;;;;;;5.93;5.63;;;6.70;27.80;;;;;;4884898;29;20468;-84
2024/03/24 06:37:39;;;;;;;5.63;5.43;;;6.80;27.80;;;;;;4887969;29;20190;-82
2024/03/24 06:40:10;;;;;;;5.70;5.40;;;6.90;27.10;;;;;;4880753;29;20915;-83
2024/03/24 06:42:43;;;;;;;6.03;5.83;;;6.90;27.30;;;;;;4904752;29;20205;-81
2024/03/24 06:45:12;;;;;;;5.97;5.77;;;6.90;27.50;;;;;;4885646;29;20429;-84
2024/03/24 06:47:38;;;;;;;6.03;5.73;;;6.90;27.80;;;;;;4880438;29;20430;-82
2024/03/24 06:50:05;;;;;;;5.90;5.60;;;6.90;27.50;;;;;;4905205;29;20469;-82
2024/03/24 06:52:32;;;;;;;6.50;5.00;;;7.10;26.80;;;;;;4888574;29;21212;-81
2024/03/24 06:54:57;;;;;;;5.53;5.33;;;7.00;26.70;;;;;;4894158;29;20438;-80
2024/03/24 06:57:23;;;;;;;6.20;5.80;;;6.80;26.60;;;;;;4896786;29;20427;-82
2024/03/24 06:59:51;;;;;;;6.23;6.03;;;7.00;26.60;;;;;;4878463;29;20684;-81
2024/03/24 07:02:17;;;;;;;5.70;5.40;;;7.20;25.90;;;;;;4901170;29;20213;-83
2024/03/24 07:04:42;;;;;;;5.50;5.30;;;7.10;25.40;;;;;;4893971;29;20450;-80
2024/03/24 07:07:11;;;;;;;6.40;6.10;;;7.10;25.40;;;;;;4895570;29;20190;-84
2024/03/24 07:09:50;;;;;;;5.77;5.57;;;7.00;25.80;;;;;;4896241;29;20198;-82
2024/03/24 07:12:22;;;;;;;6.17;5.70;;;7.20;25.20;;;;;;4869440;29;20459;-83
2024/03/24 07:15:09;;;;;;;5.67;5.47;;;7.20;24.60;;;;;;4890114;29;20470;-83
2024/03/24 07:17:41;;;;;;;6.00;5.80;;;7.00;25.10;;;;;;4891418;29;20450;-82
2024/03/24 07:20:25;;;;;;;5.43;5.23;;;7.30;24.20;;;;;;4882850;29;20443;-82
2024/03/24 07:22:50;;;;;;;5.80;5.50;;;7.10;23.70;;;;;;4880087;29;20458;-81
2024/03/24 07:25:16;;;;;;;6.07;5.80;;;7.00;23.80;;;;;;4867498;29;20453;-81
2024/03/24 07:27:42;;;;;;;6.37;6.07;;;7.00;24.10;;;;;;4887563;29;20724;-81
2024/03/24 07:30:08;;;;;;;6.77;6.50;;;7.10;23.80;;;;;;4893874;29;20443;-79
2024/03/24 07:32:35;;;;;;;6.60;6.10;;;7.00;24.10;;;;;;4884819;29;21054;-79
2024/03/24 07:35:01;;;;;;;6.30;6.00;;;7.00;24.10;;;;;;4889353;29;20494;-80
2024/03/24 07:37:27;;;;;;;5.70;5.40;;;6.90;24.10;;;;;;4876051;29;21031;-81
2024/03/24 07:39:55;;;;;;;7.57;7.27;;;6.90;24.60;;;;;;4885733;29;20446;-81
2024/03/24 07:42:47;;;;;;;6.37;6.07;;;6.90;24.40;;;;;;4896226;29;20216;-82
2024/03/24 07:45:23;;;;;;;5.80;5.50;;;6.90;24.40;;;;;;4870512;29;20490;-80
2024/03/24 07:47:49;;;;;;;6.60;6.17;;;7.00;23.90;;;;;;4861422;29;20470;-80
2024/03/24 07:50:27;;;;;;;5.70;5.50;;;7.00;23.50;;;;;;4878707;29;20438;-80
2024/03/24 07:52:55;;;;;;;5.70;5.50;;;7.10;22.50;;;;;;4879764;29;20856;-78
2024/03/24 07:55:21;;;;;;;5.87;5.63;;;7.20;22.70;;;;;;4889985;29;20498;-79
2024/03/24 07:57:46;;;;;;;6.00;5.60;;;7.40;22.90;;;;;;4885137;29;20234;-79
2024/03/24 08:00:13;;;;;;;5.80;5.60;;;7.50;22.20;;;;;;4895722;29;20196;-80
2024/03/24 08:02:38;;;;;;;6.50;6.10;;;7.60;22.10;;;;;;4893040;29;20205;-80
2024/03/24 08:05:05;;;;;;;6.27;5.97;;;7.70;20.70;;;;;;4882944;29;20435;-81
2024/03/24 08:07:30;;;;;;;6.17;5.60;;;7.80;21.50;;;;;;4880968;29;20210;-80
2024/03/24 08:09:56;;;;;;;5.50;5.30;;;7.90;21.40;;;;;;4890355;29;20513;-81
2024/03/24 08:12:22;;;;;;;5.63;5.43;;;7.80;21.60;;;;;;4894942;29;20214;-81
2024/03/24 08:14:47;;;;;;;4.87;4.67;;;7.60;22.40;;;;;;4880020;29;20613;-79
2024/03/24 08:17:13;;;;;;;4.80;4.60;;;7.50;22.40;;;;;;4880014;29;20198;-80
2024/03/24 08:19:41;;;;;;;4.83;4.63;;;7.60;22.40;;;;;;4886003;29;20198;-81
2024/03/24 08:22:07;;;;;;;5.53;5.27;;;7.60;22.50;;;;;;4870159;29;20214;-81
2024/03/24 08:24:34;;;;;;;7.73;7.23;;;7.60;22.40;;;;;;4878493;29;20438;-80
2024/03/24 08:27:00;;;;;;;6.30;5.97;;;7.70;22.20;;;;;;4878535;29;20438;-81
2024/03/24 08:29:25;;;;;;;5.37;5.17;;;7.80;22.60;;;;;;4872676;29;20559;-81
2024/03/24 08:32:00;;;;;;;5.63;5.33;;;7.80;21.40;;;;;;4877456;29;20562;-81
2024/03/24 08:34:26;;;;;;;5.13;4.93;;;8.00;21.30;;;;;;4877981;29;20296;-80
2024/03/24 08:36:51;;;;;;;5.07;4.77;;;8.00;20.30;;;;;;4876501;29;20481;-80
2024/03/24 08:39:17;;;;;;;5.67;5.37;;;8.00;20.20;;;;;;4872007;29;20213;-79
2024/03/24 08:41:42;;;;;;;5.90;5.60;;;8.00;20.60;;;;;;4875034;29;20305;-80
2024/03/24 08:44:09;;;;;;;4.83;4.53;;;8.20;20.30;;;;;;4879256;29;20197;-80
2024/03/24 08:46:35;;;;;;;5.37;5.07;;;8.30;20.90;;;;;;4878765;29;20538;-79
2024/03/24 08:49:01;;;;;;;5.10;4.90;;;8.20;19.50;;;;;;4880639;29;20457;-80
2024/03/24 08:51:27;;;;;;;5.57;5.17;;;8.30;19.50;;;;;;4890157;29;20470;-80
2024/03/24 08:53:52;;;;;;;5.47;5.17;;;8.40;19.60;;;;;;4874043;29;20213;-81
2024/03/24 08:56:18;;;;;;;5.80;5.50;;;8.40;19.20;;;;;;4899522;29;20224;-80
2024/03/24 08:58:52;;;;;;;5.90;5.50;;;8.40;19.90;;;;;;4899421;29;20194;-81
2024/03/24 09:01:18;;;;;;;6.03;5.63;;;8.40;19.20;;;;;;4894328;29;20185;-80
2024/03/24 09:03:43;;;;;;;5.83;5.63;;;8.40;19.00;;;;;;4882031;29;21136;-80
2024/03/24 09:06:21;;;;;;;5.17;4.97;;;8.60;18.10;;;;;;4880131;29;20198;-82
2024/03/24 09:08:46;;;;;;;5.60;5.40;;;8.70;18.20;;;;;;4878475;29;20827;-81
2024/03/24 09:11:12;;;;;;;5.50;5.10;;;8.50;18.40;;;;;;4873157;29;20433;-80
2024/03/24 09:13:38;;;;;;;5.60;5.30;;;8.40;17.60;;;;;;4896371;29;20217;-80
2024/03/24 09:16:04;;;;;;;6.27;5.87;;;8.40;17.50;;;;;;4900767;29;20198;-81
2024/03/24 09:18:30;;;;;;;5.30;5.00;;;8.30;18.80;;;;;;4901071;29;20268;-82
2024/03/24 09:21:01;;;;;;;5.30;4.90;;;8.40;17.40;;;;;;4899461;29;20480;-82
2024/03/24 09:23:29;;;;;;;5.90;5.50;;;8.30;17.30;;;;;;4900990;29;20220;-81
2024/03/24 09:25:54;;;;;;;5.33;4.83;;;8.30;17.50;;;;;;4890659;29;20441;-80
2024/03/24 09:28:20;;;;;;;6.17;5.63;;;8.20;17.50;;;;;;4877029;29;20443;-80
2024/03/24 09:31:03;;;;;;;5.43;5.03;;;8.20;17.90;;;;;;4882237;29;20621;-81
2024/03/24 09:33:29;;;;;;;5.63;5.23;;;8.40;17.40;;;;;;4900744;29;20217;-81
2024/03/24 09:36:04;;;;;;;4.83;4.63;;;8.30;17.40;;;;;;4898872;29;20441;-81
2024/03/24 09:38:30;;;;;;;5.73;5.43;;;8.30;17.70;;;;;;4899286;29;20874;-80
2024/03/24 09:40:55;;;;;;;5.10;4.80;;;8.30;17.90;;;;;;4898912;29;20433;-81
2024/03/24 09:43:22;;;;;;;6.40;4.90;;;8.50;18.30;;;;;;4899836;29;20217;-81
2024/03/24 09:45:48;;;;;;;5.50;5.10;;;8.50;17.90;;;;;;4899577;29;20208;-82
2024/03/24 09:48:16;;;;;;;4.93;4.63;;;8.60;18.10;;;;;;4899442;29;20509;-80
2024/03/24 09:50:42;;;;;;;6.00;5.40;;;8.60;17.90;;;;;;4899856;29;21101;-81
2024/03/24 09:53:09;;;;;;;5.30;4.90;;;8.50;18.40;;;;;;4897930;29;20913;-80
2024/03/24 09:55:35;;;;;;;5.03;4.70;;;8.40;18.60;;;;;;4880161;29;20529;-80
2024/03/24 09:58:01;;;;;;;5.60;5.30;;;8.40;18.80;;;;;;4885838;29;21231;-79
2024/03/24 10:00:26;;;;;;;5.97;5.67;;;8.40;19.00;;;;;;4902234;29;20537;-79
2024/03/24 10:02:53;;;;;;;5.80;5.40;;;8.30;18.80;;;;;;4904379;29;20264;-79
2024/03/24 10:05:19;;;;;;;5.63;5.33;;;8.20;19.00;;;;;;4900968;29;20185;-80
2024/03/24 10:07:46;;;;;;;6.00;5.70;;;8.10;19.50;;;;;;4899768;29;20441;-81
2024/03/24 10:10:13;;;;;;;6.30;6.00;;;8.00;19.20;;;;;;4900219;29;20437;-79
2024/03/24 10:12:39;;;;;;;6.80;6.30;;;8.00;20.00;;;;;;4901160;29;20449;-82
2024/03/24 10:15:18;;;;;;;6.80;6.30;;;8.10;20.90;;;;;;4898885;29;20880;-81
2024/03/24 10:17:44;;;;;;;6.50;6.00;;;8.30;20.00;;;;;;4899139;29;20606;-80
2024/03/24 10:20:13;;;;;;;6.83;6.43;;;8.40;19.80;;;;;;4880912;29;20447;-81
2024/03/24 10:22:39;;;;;;;5.70;5.50;;;8.40;19.00;;;;;;4882060;29;20269;-81
2024/03/24 10:25:11;;;;;;;6.33;5.93;;;8.40;19.30;;;;;;4881004;29;20437;-81
2024/03/24 10:27:38;;;;;;;6.20;5.80;;;8.30;19.30;;;;;;4881439;29;20439;-81
2024/03/24 10:30:04;;;;;;;5.67;5.37;;;8.20;19.60;;;;;;4882232;29;20438;-81
2024/03/24 10:32:31;;;;;;;5.20;4.97;;;8.20;19.40;;;;;;4899548;29;20611;-80
2024/03/24 10:35:00;;;;;;;5.90;5.60;;;8.20;19.40;;;;;;4896060;29;20484;-80
2024/03/24 10:37:27;;;;;;;5.50;5.20;;;8.30;20.20;;;;;;4883221;29;20445;-80
2024/03/24 10:40:03;;;;;;;6.00;5.50;;;8.50;19.40;;;;;;4889654;29;20486;-79
2024/03/24 10:42:32;;;;;;;6.10;5.53;;;8.70;19.40;;;;;;4880994;29;20458;-82
2024/03/24 10:45:03;;;;;;;6.00;5.60;;;8.80;19.40;;;;;;4879197;29;20455;-80
2024/03/24 10:47:36;;;;;;;6.00;5.70;;;8.90;19.20;;;;;;4877522;29;20446;-80
2024/03/24 10:50:02;;;;;;;6.27;5.87;;;9.00;19.10;;;;;;4897619;29;20510;-80
2024/03/24 10:52:33;;;;;;;6.13;5.73;;;9.10;18.50;;;;;;4897289;29;20528;-81
2024/03/24 10:55:00;;;;;;;6.17;5.77;;;9.10;18.60;;;;;;4887970;29;20478;-80
2024/03/24 10:57:26;;;;;;;5.80;5.50;;;9.10;18.70;;;;;;4864327;29;20467;-80
2024/03/24 10:59:54;;;;;;;6.40;6.00;;;9.20;18.50;;;;;;4880289;29;20493;-82
2024/03/24 11:02:26;;;;;;;6.60;6.13;;;9.10;19.10;;;;;;4881859;29;20537;-79
2024/03/24 11:04:52;;;;;;;5.37;5.00;;;9.10;18.30;;;;;;4880105;29;20438;-79
2024/03/24 11:07:18;;;;;;;5.57;5.17;;;9.10;18.90;;;;;;4866538;29;20532;-79
2024/03/24 11:09:44;;;;;;;5.60;5.30;;;9.30;18.10;;;;;;4880848;29;20435;-81
2024/03/24 11:12:29;;;;;;;5.93;5.53;;;9.40;17.60;;;;;;4894719;23;20495;-80
2024/03/24 11:15:16;;;;;;;5.93;5.53;;;9.20;17.20;;;;;;4938288;28;20306;-82
2024/03/24 11:17:42;;;;;;;5.73;5.43;;;9.00;18.10;;;;;;4925538;29;20435;-81
2024/03/24 11:20:34;;;;;;;5.60;5.30;;;9.00;18.40;;;;;;4940885;29;20442;-81
2024/03/24 11:23:40;;;;;;;6.13;5.63;;;8.90;18.50;;;;;;4942343;29;20311;-80
2024/03/24 11:26:08;;;;;;;6.00;5.70;;;8.80;18.80;;;;;;4918577;29;20462;-80
2024/03/24 11:28:54;;;;;;;6.77;6.27;;;8.70;19.40;;;;;;4921253;29;20451;-80
2024/03/24 11:31:20;;;;;;;5.70;5.50;;;8.80;19.80;;;;;;4917786;29;20456;-81
2024/03/24 11:34:05;;;;;;;5.60;5.20;;;8.80;21.20;;;;;;4911350;29;20480;-80
2024/03/24 11:36:32;;;;;;;5.77;5.37;;;8.50;22.70;;;;;;4910968;29;20195;-80
2024/03/24 11:38:59;;;;;;;5.60;5.20;;;8.50;23.60;;;;;;4912285;29;20429;-80
2024/03/24 11:41:25;;;;;;;5.60;5.20;;;8.40;22.90;;;;;;4929983;29;20443;-80
2024/03/24 11:43:57;;;;;;;6.17;5.30;;;8.40;22.90;;;;;;4913967;29;20541;-80
2024/03/24 11:46:27;;;;;;;5.10;4.80;;;8.50;22.30;;;;;;4910517;29;20445;-80
2024/03/24 11:48:53;;;;;;;5.40;5.10;;;8.60;22.90;;;;;;4928608;29;20441;-80
2024/03/24 11:51:24;;;;;;;6.40;6.10;;;8.60;21.30;;;;;;4929173;29;20583;-80
2024/03/24 11:53:51;;;;;;;5.47;5.10;;;8.50;20.90;;;;;;4930652;29;20886;-80
2024/03/24 11:56:20;;;;;;;5.60;5.30;;;8.50;20.60;;;;;;4926276;29;20432;-80
2024/03/24 11:58:50;;;;;;;6.10;5.80;;;8.80;20.90;;;;;;4922827;29;20448;-81
2024/03/24 12:01:17;;;;;;;5.83;5.47;;;9.00;20.60;;;;;;4910271;29;20988;-81
2024/03/24 12:03:46;;;;;;;4.77;4.50;;;9.00;18.90;;;;;;4942663;29;20463;-80
2024/03/24 12:06:14;;;;;;;4.83;4.43;;;9.00;18.70;;;;;;4911836;29;20441;-80
2024/03/24 12:08:40;;;;;;;4.53;4.23;;;9.00;19.60;;;;;;4918824;29;20830;-79
2024/03/24 12:11:07;;;;;;;5.20;4.90;;;8.80;20.60;;;;;;4943391;29;20431;-79
2024/03/24 12:13:32;;;;;;;5.20;4.90;;;8.80;20.50;;;;;;4911136;29;20500;-80
2024/03/24 12:15:58;;;;;;;5.30;4.90;;;8.80;20.70;;;;;;4919078;29;20451;-81
2024/03/24 12:18:23;;;;;;;5.33;5.13;;;8.80;20.10;;;;;;4924580;29;20261;-81
2024/03/24 12:20:49;;;;;;;5.27;5.07;;;8.90;20.90;;;;;;4947471;29;20200;-80
2024/03/24 12:23:15;;;;;;;4.90;4.70;;;8.80;20.60;;;;;;4919327;29;20738;-80
2024/03/24 12:25:45;;;;;;;5.30;5.00;;;8.70;21.60;;;;;;4926464;29;20483;-80
2024/03/24 12:28:17;;;;;;;5.03;4.73;;;8.60;23.00;;;;;;4937772;29;20433;-80
2024/03/24 12:30:57;;;;;;;5.20;4.90;;;8.50;22.80;;;;;;4914157;29;20948;-81
2024/03/24 12:33:24;;;;;;;5.27;4.97;;;8.50;23.00;;;;;;4924769;29;20486;-81
2024/03/24 12:35:54;;;;;;;5.33;5.03;;;8.60;23.00;;;;;;4932736;29;20443;-80
2024/03/24 12:38:20;;;;;;;5.63;5.23;;;8.40;23.10;;;;;;4930983;29;20478;-81
2024/03/24 12:40:50;;;;;;;5.20;4.90;;;8.40;22.40;;;;;;4932797;29;20448;-81
2024/03/24 12:43:15;;;;;;;5.03;4.80;;;8.40;22.20;;;;;;4930998;29;20441;-80
2024/03/24 12:45:55;;;;;;;5.60;5.10;;;8.40;23.00;;;;;;4930503;29;20467;-81
2024/03/24 12:48:30;;;;;;;5.10;4.80;;;8.40;22.90;;;;;;4913199;29;20193;-80
2024/03/24 12:50:59;;;;;;;6.03;5.60;;;8.50;21.40;;;;;;4911128;29;20436;-80
2024/03/24 12:53:45;;;;;;;6.27;5.80;;;8.50;20.70;;;;;;4927755;29;20478;-81
2024/03/24 12:56:16;;;;;;;6.00;5.60;;;8.70;21.00;;;;;;4910183;29;21152;-81
2024/03/24 12:58:44;;;;;;;5.60;5.30;;;8.60;20.80;;;;;;4928243;29;20442;-81
2024/03/24 13:01:11;;;;;;;6.50;6.00;;;8.70;21.60;;;;;;4928730;29;20436;-80
2024/03/24 13:03:41;;;;;;;5.77;5.47;;;8.70;22.60;;;;;;4910799;29;20445;-80
2024/03/24 13:06:12;;;;;;;6.70;6.20;;;8.30;25.70;;;;;;4900000;29;20448;-80
2024/03/24 13:08:38;;;;;;;6.30;5.90;;;7.80;29.40;;;;;;4908813;29;20433;-80
2024/03/24 13:11:03;;;;;;;6.13;5.73;;;7.60;29.30;;;;;;4932321;29;20488;-80
2024/03/24 13:13:33;;;;;;;5.50;5.23;;;7.50;31.70;;;;;;4925967;29;20224;-80
2024/03/24 13:16:00;;;;;;;5.90;5.60;;;7.50;33.80;;;;;;4939680;29;20207;-80